sensor_id;sensor_type;location;lat;lon;timestamp;pressure;altitude;pressure_sealevel;temperature;humidity
74529;BME280;63009;52.584;5.932;2023-07-16T00:01:49;100743.53;;;17.37;74.28
74529;BME280;63009;52.584;5.932;2023-07-16T00:04:14;100739.03;;;17.37;74.09
74529;BME280;63009;52.584;5.932;2023-07-16T00:06:39;100737.94;;;17.40;74.31
74529;BME280;63009;52.584;5.932;2023-07-16T00:09:05;100738.19;;;17.37;74.68
74529;BME280;63009;52.584;5.932;2023-07-16T00:11:30;100748.88;;;17.37;74.83
74529;BME280;63009;52.584;5.932;2023-07-16T00:13:55;100747.19;;;17.36;74.41
74529;BME280;63009;52.584;5.932;2023-07-16T00:16:21;100743.50;;;17.27;74.57
74529;BME280;63009;52.584;5.932;2023-07-16T00:18:46;100742.78;;;17.25;74.74
74529;BME280;63009;52.584;5.932;2023-07-16T00:21:11;100740.13;;;17.25;74.49
74529;BME280;63009;52.584;5.932;2023-07-16T00:23:37;100742.59;;;17.17;74.50
74529;BME280;63009;52.584;5.932;2023-07-16T00:26:02;100746.53;;;17.13;74.59
74529;BME280;63009;52.584;5.932;2023-07-16T00:28:28;100734.31;;;17.10;74.33
74529;BME280;63009;52.584;5.932;2023-07-16T00:30:53;100730.94;;;17.08;74.33
74529;BME280;63009;52.584;5.932;2023-07-16T00:33:18;100740.06;;;17.15;73.77
74529;BME280;63009;52.584;5.932;2023-07-16T00:35:47;100735.91;;;17.23;73.95
74529;BME280;63009;52.584;5.932;2023-07-16T00:38:14;100729.25;;;17.17;74.16
74529;BME280;63009;52.584;5.932;2023-07-16T00:40:39;100743.88;;;17.13;74.59
74529;BME280;63009;52.584;5.932;2023-07-16T00:43:04;100755.53;;;17.12;74.92
74529;BME280;63009;52.584;5.932;2023-07-16T00:45:30;100746.50;;;17.03;75.48
74529;BME280;63009;52.584;5.932;2023-07-16T00:47:55;100744.78;;;17.02;75.31
74529;BME280;63009;52.584;5.932;2023-07-16T00:50:20;100733.53;;;16.99;75.58
74529;BME280;63009;52.584;5.932;2023-07-16T00:52:46;100741.75;;;17.07;75.42
74529;BME280;63009;52.584;5.932;2023-07-16T00:55:12;100744.22;;;16.99;76.38
74529;BME280;63009;52.584;5.932;2023-07-16T00:57:38;100735.69;;;17.05;75.51
74529;BME280;63009;52.584;5.932;2023-07-16T01:00:04;100744.41;;;17.07;75.14
74529;BME280;63009;52.584;5.932;2023-07-16T01:02:30;100732.41;;;17.01;74.61
74529;BME280;63009;52.584;5.932;2023-07-16T01:04:55;100740.84;;;16.97;74.66
74529;BME280;63009;52.584;5.932;2023-07-16T01:07:24;100748.00;;;16.96;75.11
74529;BME280;63009;52.584;5.932;2023-07-16T01:09:51;100741.28;;;17.02;74.16
74529;BME280;63009;52.584;5.932;2023-07-16T01:12:19;100738.88;;;16.99;73.97
74529;BME280;63009;52.584;5.932;2023-07-16T01:14:46;100736.34;;;16.97;73.28
74529;BME280;63009;52.584;5.932;2023-07-16T01:17:11;100727.63;;;16.95;73.39
74529;BME280;63009;52.584;5.932;2023-07-16T01:19:36;100739.44;;;16.92;73.55
74529;BME280;63009;52.584;5.932;2023-07-16T01:22:13;100744.75;;;16.92;73.19
74529;BME280;63009;52.584;5.932;2023-07-16T01:27:34;100743.78;;;16.94;73.20
74529;BME280;63009;52.584;5.932;2023-07-16T01:30:08;100737.75;;;16.91;73.83
74529;BME280;63009;52.584;5.932;2023-07-16T01:32:36;100725.03;;;16.84;72.63
74529;BME280;63009;52.584;5.932;2023-07-16T01:35:02;100736.22;;;16.99;72.60
74529;BME280;63009;52.584;5.932;2023-07-16T01:37:27;100734.09;;;16.92;72.96
74529;BME280;63009;52.584;5.932;2023-07-16T01:39:53;100732.84;;;16.97;72.75
74529;BME280;63009;52.584;5.932;2023-07-16T01:42:19;100741.81;;;16.96;72.25
74529;BME280;63009;52.584;5.932;2023-07-16T01:44:44;100741.69;;;16.97;72.36
74529;BME280;63009;52.584;5.932;2023-07-16T01:47:11;100745.03;;;16.89;73.02
74529;BME280;63009;52.584;5.932;2023-07-16T01:49:39;100751.31;;;16.88;72.97
74529;BME280;63009;52.584;5.932;2023-07-16T01:52:07;100747.56;;;16.91;72.19
74529;BME280;63009;52.584;5.932;2023-07-16T01:54:32;100747.94;;;16.86;71.79
74529;BME280;63009;52.584;5.932;2023-07-16T01:56:58;100728.63;;;16.94;70.65
74529;BME280;63009;52.584;5.932;2023-07-16T01:59:23;100744.50;;;16.96;71.72
74529;BME280;63009;52.584;5.932;2023-07-16T02:01:48;100735.44;;;16.87;72.28
74529;BME280;63009;52.584;5.932;2023-07-16T02:04:14;100736.69;;;16.83;72.81
74529;BME280;63009;52.584;5.932;2023-07-16T02:06:39;100736.84;;;16.81;73.04
74529;BME280;63009;52.584;5.932;2023-07-16T02:09:04;100729.22;;;16.77;72.37
74529;BME280;63009;52.584;5.932;2023-07-16T02:11:29;100728.13;;;16.79;72.34
74529;BME280;63009;52.584;5.932;2023-07-16T02:13:55;100739.63;;;16.80;71.64
74529;BME280;63009;52.584;5.932;2023-07-16T02:16:20;100730.25;;;16.85;72.00
74529;BME280;63009;52.584;5.932;2023-07-16T02:18:45;100738.97;;;16.87;72.20
74529;BME280;63009;52.584;5.932;2023-07-16T02:21:10;100741.06;;;16.84;73.30
74529;BME280;63009;52.584;5.932;2023-07-16T02:23:36;100745.13;;;16.88;73.32
74529;BME280;63009;52.584;5.932;2023-07-16T02:26:01;100737.75;;;16.91;72.90
74529;BME280;63009;52.584;5.932;2023-07-16T02:28:26;100733.63;;;16.87;73.69
74529;BME280;63009;52.584;5.932;2023-07-16T02:30:52;100731.56;;;16.91;73.65
74529;BME280;63009;52.584;5.932;2023-07-16T02:33:17;100738.78;;;16.79;74.15
74529;BME280;63009;52.584;5.932;2023-07-16T02:35:46;100733.19;;;16.82;74.38
74529;BME280;63009;52.584;5.932;2023-07-16T02:38:12;100737.53;;;16.83;74.70
74529;BME280;63009;52.584;5.932;2023-07-16T02:40:45;100735.59;;;16.85;74.10
74529;BME280;63009;52.584;5.932;2023-07-16T02:43:11;100728.13;;;16.79;74.14
74529;BME280;63009;52.584;5.932;2023-07-16T02:45:36;100730.06;;;16.77;74.61
74529;BME280;63009;52.584;5.932;2023-07-16T02:48:02;100738.59;;;16.71;75.56
74529;BME280;63009;52.584;5.932;2023-07-16T02:50:28;100732.03;;;16.75;75.06
74529;BME280;63009;52.584;5.932;2023-07-16T02:52:53;100742.09;;;16.72;75.33
74529;BME280;63009;52.584;5.932;2023-07-16T02:55:18;100740.28;;;16.72;75.22
74529;BME280;63009;52.584;5.932;2023-07-16T02:57:44;100755.31;;;16.73;75.12
74529;BME280;63009;52.584;5.932;2023-07-16T03:00:09;100742.09;;;16.72;75.53
74529;BME280;63009;52.584;5.932;2023-07-16T03:02:35;100740.06;;;16.64;76.21
74529;BME280;63009;52.584;5.932;2023-07-16T03:05:00;100751.09;;;16.71;75.45
74529;BME280;63009;52.584;5.932;2023-07-16T03:07:25;100745.41;;;16.64;75.90
74529;BME280;63009;52.584;5.932;2023-07-16T03:09:51;100758.03;;;16.62;76.35
74529;BME280;63009;52.584;5.932;2023-07-16T03:12:16;100754.78;;;16.58;76.67
74529;BME280;63009;52.584;5.932;2023-07-16T03:14:41;100747.03;;;16.55;77.16
74529;BME280;63009;52.584;5.932;2023-07-16T03:17:07;100759.97;;;16.60;76.76
74529;BME280;63009;52.584;5.932;2023-07-16T03:19:32;100762.88;;;16.68;76.38
74529;BME280;63009;52.584;5.932;2023-07-16T03:21:58;100752.72;;;16.62;76.92
74529;BME280;63009;52.584;5.932;2023-07-16T03:24:23;100764.09;;;16.64;76.79
74529;BME280;63009;52.584;5.932;2023-07-16T03:26:48;100756.72;;;16.56;77.22
74529;BME280;63009;52.584;5.932;2023-07-16T03:29:14;100768.25;;;16.57;77.35
74529;BME280;63009;52.584;5.932;2023-07-16T03:31:39;100757.91;;;16.63;77.42
74529;BME280;63009;52.584;5.932;2023-07-16T03:34:04;100757.13;;;16.52;78.45
74529;BME280;63009;52.584;5.932;2023-07-16T03:36:29;100765.25;;;16.50;78.60
74529;BME280;63009;52.584;5.932;2023-07-16T03:38:55;100770.59;;;16.50;78.83
74529;BME280;63009;52.584;5.932;2023-07-16T03:41:20;100759.25;;;16.37;78.75
74529;BME280;63009;52.584;5.932;2023-07-16T03:43:45;100764.19;;;16.42;78.94
74529;BME280;63009;52.584;5.932;2023-07-16T03:46:11;100766.88;;;16.42;79.27
74529;BME280;63009;52.584;5.932;2023-07-16T03:48:36;100777.28;;;16.45;79.32
74529;BME280;63009;52.584;5.932;2023-07-16T03:51:01;100778.97;;;16.46;79.60
74529;BME280;63009;52.584;5.932;2023-07-16T03:53:26;100776.50;;;16.54;79.17
74529;BME280;63009;52.584;5.932;2023-07-16T03:55:52;100791.09;;;16.50;79.78
74529;BME280;63009;52.584;5.932;2023-07-16T03:58:17;100782.44;;;16.57;79.11
74529;BME280;63009;52.584;5.932;2023-07-16T04:00:42;100776.66;;;16.52;79.23
74529;BME280;63009;52.584;5.932;2023-07-16T04:03:09;100785.38;;;16.54;79.40
74529;BME280;63009;52.584;5.932;2023-07-16T04:05:34;100784.91;;;16.49;79.48
74529;BME280;63009;52.584;5.932;2023-07-16T04:07:59;100789.72;;;16.55;80.08
74529;BME280;63009;52.584;5.932;2023-07-16T04:10:25;100789.00;;;16.53;79.81
74529;BME280;63009;52.584;5.932;2023-07-16T04:12:50;100788.56;;;16.48;79.77
74529;BME280;63009;52.584;5.932;2023-07-16T04:15:15;100793.41;;;16.43;79.66
74529;BME280;63009;52.584;5.932;2023-07-16T04:17:40;100790.13;;;16.51;78.74
74529;BME280;63009;52.584;5.932;2023-07-16T04:20:06;100791.00;;;16.40;80.00
74529;BME280;63009;52.584;5.932;2023-07-16T04:22:36;100795.63;;;16.38;79.76
74529;BME280;63009;52.584;5.932;2023-07-16T04:25:02;100797.19;;;16.41;79.74
74529;BME280;63009;52.584;5.932;2023-07-16T04:27:27;100792.69;;;16.41;79.94
74529;BME280;63009;52.584;5.932;2023-07-16T04:29:52;100780.72;;;16.36;79.44
74529;BME280;63009;52.584;5.932;2023-07-16T04:32:18;100783.63;;;16.32;80.20
74529;BME280;63009;52.584;5.932;2023-07-16T04:34:43;100798.78;;;16.32;80.58
74529;BME280;63009;52.584;5.932;2023-07-16T04:37:08;100787.72;;;16.48;79.18
74529;BME280;63009;52.584;5.932;2023-07-16T04:39:34;100787.19;;;16.54;78.84
74529;BME280;63009;52.584;5.932;2023-07-16T04:41:59;100789.63;;;16.46;79.25
74529;BME280;63009;52.584;5.932;2023-07-16T04:44:24;100806.13;;;16.51;79.59
74529;BME280;63009;52.584;5.932;2023-07-16T04:46:50;100812.31;;;16.51;79.77
74529;BME280;63009;52.584;5.932;2023-07-16T04:49:15;100801.81;;;16.59;78.93
74529;BME280;63009;52.584;5.932;2023-07-16T04:51:40;100812.88;;;16.55;79.64
74529;BME280;63009;52.584;5.932;2023-07-16T04:54:05;100814.44;;;16.57;80.08
74529;BME280;63009;52.584;5.932;2023-07-16T04:56:31;100806.28;;;16.70;79.19
74529;BME280;63009;52.584;5.932;2023-07-16T04:58:56;100820.13;;;16.75;79.07
74529;BME280;63009;52.584;5.932;2023-07-16T05:01:21;100828.16;;;16.85;78.39
74529;BME280;63009;52.584;5.932;2023-07-16T05:03:47;100822.56;;;16.88;78.44
74529;BME280;63009;52.584;5.932;2023-07-16T05:06:12;100834.44;;;16.95;78.32
74529;BME280;63009;52.584;5.932;2023-07-16T05:08:37;100842.56;;;16.94;78.67
74529;BME280;63009;52.584;5.932;2023-07-16T05:11:03;100837.31;;;17.03;77.93
74529;BME280;63009;52.584;5.932;2023-07-16T05:13:28;100834.09;;;17.09;78.40
74529;BME280;63009;52.584;5.932;2023-07-16T05:15:54;100842.41;;;17.16;77.48
74529;BME280;63009;52.584;5.932;2023-07-16T05:18:19;100837.06;;;17.16;77.75
74529;BME280;63009;52.584;5.932;2023-07-16T05:20:48;100833.63;;;17.25;77.64
74529;BME280;63009;52.584;5.932;2023-07-16T05:23:14;100830.28;;;17.33;77.69
74529;BME280;63009;52.584;5.932;2023-07-16T05:25:45;100844.66;;;17.41;77.12
74529;BME280;63009;52.584;5.932;2023-07-16T05:28:11;100840.88;;;17.44;76.65
74529;BME280;63009;52.584;5.932;2023-07-16T05:30:36;100839.38;;;17.51;76.54
74529;BME280;63009;52.584;5.932;2023-07-16T05:33:01;100839.94;;;17.55;76.19
74529;BME280;63009;52.584;5.932;2023-07-16T05:35:26;100844.03;;;17.59;74.98
74529;BME280;63009;52.584;5.932;2023-07-16T05:37:52;100848.31;;;17.71;74.98
74529;BME280;63009;52.584;5.932;2023-07-16T05:40:17;100846.97;;;17.76;74.39
74529;BME280;63009;52.584;5.932;2023-07-16T05:42:42;100852.78;;;17.91;75.38
74529;BME280;63009;52.584;5.932;2023-07-16T05:45:08;100848.13;;;17.93;74.09
74529;BME280;63009;52.584;5.932;2023-07-16T05:47:33;100852.91;;;17.99;72.96
74529;BME280;63009;52.584;5.932;2023-07-16T05:49:59;100865.47;;;18.08;73.56
74529;BME280;63009;52.584;5.932;2023-07-16T05:52:24;100865.09;;;18.23;72.28
74529;BME280;63009;52.584;5.932;2023-07-16T05:54:49;100863.97;;;18.25;72.29
74529;BME280;63009;52.584;5.932;2023-07-16T05:57:14;100873.84;;;18.44;71.77
74529;BME280;63009;52.584;5.932;2023-07-16T05:59:40;100874.84;;;18.62;71.17
74529;BME280;63009;52.584;5.932;2023-07-16T06:02:05;100885.69;;;18.61;70.32
74529;BME280;63009;52.584;5.932;2023-07-16T06:04:31;100881.34;;;18.69;70.41
74529;BME280;63009;52.584;5.932;2023-07-16T06:06:56;100882.91;;;18.72;70.57
74529;BME280;63009;52.584;5.932;2023-07-16T06:09:22;100882.34;;;18.88;69.29
74529;BME280;63009;52.584;5.932;2023-07-16T06:11:48;100894.16;;;19.05;69.88
74529;BME280;63009;52.584;5.932;2023-07-16T06:14:13;100880.19;;;19.11;67.80
74529;BME280;63009;52.584;5.932;2023-07-16T06:16:38;100889.75;;;19.23;67.56
74529;BME280;63009;52.584;5.932;2023-07-16T06:19:04;100889.22;;;19.19;66.74
74529;BME280;63009;52.584;5.932;2023-07-16T06:21:29;100890.50;;;19.15;67.24
74529;BME280;63009;52.584;5.932;2023-07-16T06:23:54;100895.66;;;19.36;66.76
74529;BME280;63009;52.584;5.932;2023-07-16T06:26:20;100902.69;;;19.47;65.75
74529;BME280;63009;52.584;5.932;2023-07-16T06:28:45;100911.59;;;19.38;64.71
74529;BME280;63009;52.584;5.932;2023-07-16T06:31:14;100889.06;;;19.31;66.04
74529;BME280;63009;52.584;5.932;2023-07-16T06:33:39;100893.94;;;19.45;64.89
74529;BME280;63009;52.584;5.932;2023-07-16T06:36:05;100912.69;;;19.54;64.93
74529;BME280;63009;52.584;5.932;2023-07-16T06:38:30;100910.81;;;19.74;65.71
74529;BME280;63009;52.584;5.932;2023-07-16T06:40:55;100910.75;;;19.84;64.86
74529;BME280;63009;52.584;5.932;2023-07-16T06:43:20;100918.47;;;19.97;64.16
74529;BME280;63009;52.584;5.932;2023-07-16T06:45:48;100907.00;;;20.04;63.50
74529;BME280;63009;52.584;5.932;2023-07-16T06:48:13;100920.28;;;20.06;62.60
74529;BME280;63009;52.584;5.932;2023-07-16T06:50:38;100918.69;;;20.13;63.27
74529;BME280;63009;52.584;5.932;2023-07-16T06:53:04;100926.13;;;20.19;62.93
74529;BME280;63009;52.584;5.932;2023-07-16T06:55:29;100929.34;;;20.23;61.83
74529;BME280;63009;52.584;5.932;2023-07-16T06:57:54;100923.19;;;20.12;61.67
74529;BME280;63009;52.584;5.932;2023-07-16T07:00:20;100913.53;;;20.02;62.31
74529;BME280;63009;52.584;5.932;2023-07-16T07:02:45;100917.19;;;20.28;61.73
74529;BME280;63009;52.584;5.932;2023-07-16T07:05:10;100925.00;;;20.49;61.94
74529;BME280;63009;52.584;5.932;2023-07-16T07:07:35;100919.31;;;20.52;60.95
74529;BME280;63009;52.584;5.932;2023-07-16T07:10:01;100917.44;;;20.35;62.33
74529;BME280;63009;52.584;5.932;2023-07-16T07:12:26;100926.94;;;20.57;62.46
74529;BME280;63009;52.584;5.932;2023-07-16T07:14:52;100926.31;;;20.63;61.44
74529;BME280;63009;52.584;5.932;2023-07-16T07:17:17;100923.88;;;20.87;61.23
74529;BME280;63009;52.584;5.932;2023-07-16T07:19:43;100943.88;;;20.57;62.43
74529;BME280;63009;52.584;5.932;2023-07-16T07:22:08;100939.59;;;20.37;61.93
74529;BME280;63009;52.584;5.932;2023-07-16T07:24:33;100938.66;;;20.01;63.14
74529;BME280;63009;52.584;5.932;2023-07-16T07:26:59;100945.72;;;20.29;63.43
74529;BME280;63009;52.584;5.932;2023-07-16T07:29:24;100940.25;;;20.21;62.36
74529;BME280;63009;52.584;5.932;2023-07-16T07:31:50;100957.22;;;20.39;63.87
74529;BME280;63009;52.584;5.932;2023-07-16T07:34:15;100962.91;;;20.36;63.10
74529;BME280;63009;52.584;5.932;2023-07-16T07:36:40;100954.69;;;20.38;62.15
74529;BME280;63009;52.584;5.932;2023-07-16T07:39:06;100962.72;;;20.20;62.34
74529;BME280;63009;52.584;5.932;2023-07-16T07:41:31;100956.72;;;20.26;63.69
74529;BME280;63009;52.584;5.932;2023-07-16T07:43:56;100961.75;;;20.39;63.38
74529;BME280;63009;52.584;5.932;2023-07-16T07:46:22;100958.59;;;20.53;63.13
74529;BME280;63009;52.584;5.932;2023-07-16T07:48:47;100971.25;;;20.33;62.60
74529;BME280;63009;52.584;5.932;2023-07-16T07:51:12;100957.09;;;20.41;63.05
74529;BME280;63009;52.584;5.932;2023-07-16T07:53:38;100960.78;;;20.85;62.34
74529;BME280;63009;52.584;5.932;2023-07-16T07:56:03;100971.03;;;20.54;62.53
74529;BME280;63009;52.584;5.932;2023-07-16T07:58:29;100978.56;;;20.68;62.47
74529;BME280;63009;52.584;5.932;2023-07-16T08:00:54;100979.88;;;20.64;61.82
74529;BME280;63009;52.584;5.932;2023-07-16T08:03:20;100988.63;;;20.66;62.03
74529;BME280;63009;52.584;5.932;2023-07-16T08:05:48;101000.91;;;20.69;63.04
74529;BME280;63009;52.584;5.932;2023-07-16T08:08:14;100986.97;;;20.83;61.18
74529;BME280;63009;52.584;5.932;2023-07-16T08:10:39;100983.19;;;20.76;61.51
74529;BME280;63009;52.584;5.932;2023-07-16T08:13:05;100992.38;;;20.56;62.92
74529;BME280;63009;52.584;5.932;2023-07-16T08:15:31;100997.03;;;20.54;63.04
74529;BME280;63009;52.584;5.932;2023-07-16T08:17:56;100990.97;;;20.52;62.23
74529;BME280;63009;52.584;5.932;2023-07-16T08:20:24;100997.25;;;20.88;61.95
74529;BME280;63009;52.584;5.932;2023-07-16T08:22:49;100999.25;;;21.03;61.80
74529;BME280;63009;52.584;5.932;2023-07-16T08:25:14;101007.31;;;21.39;60.65
74529;BME280;63009;52.584;5.932;2023-07-16T08:27:40;100998.13;;;21.42;61.52
74529;BME280;63009;52.584;5.932;2023-07-16T08:30:06;101006.34;;;21.40;60.87
74529;BME280;63009;52.584;5.932;2023-07-16T08:32:31;101007.63;;;21.18;61.90
74529;BME280;63009;52.584;5.932;2023-07-16T08:34:56;101002.78;;;21.04;61.26
74529;BME280;63009;52.584;5.932;2023-07-16T08:37:22;101025.47;;;20.74;63.30
74529;BME280;63009;52.584;5.932;2023-07-16T08:39:51;101016.13;;;20.78;63.15
74529;BME280;63009;52.584;5.932;2023-07-16T08:42:17;101016.25;;;20.59;62.13
74529;BME280;63009;52.584;5.932;2023-07-16T08:44:42;101016.13;;;20.51;63.38
74529;BME280;63009;52.584;5.932;2023-07-16T08:47:08;101018.59;;;20.44;64.12
74529;BME280;63009;52.584;5.932;2023-07-16T08:49:34;101022.56;;;20.30;63.30
74529;BME280;63009;52.584;5.932;2023-07-16T08:52:00;101038.25;;;20.25;64.02
74529;BME280;63009;52.584;5.932;2023-07-16T08:54:26;101036.78;;;20.03;63.80
74529;BME280;63009;52.584;5.932;2023-07-16T08:56:51;101037.50;;;20.05;64.83
74529;BME280;63009;52.584;5.932;2023-07-16T08:59:17;101041.94;;;19.87;64.86
74529;BME280;63009;52.584;5.932;2023-07-16T09:01:43;101037.13;;;19.91;65.18
74529;BME280;63009;52.584;5.932;2023-07-16T09:04:08;101036.78;;;20.13;65.49
74529;BME280;63009;52.584;5.932;2023-07-16T09:06:33;101031.31;;;20.32;64.50
74529;BME280;63009;52.584;5.932;2023-07-16T09:08:59;101036.25;;;20.37;63.07
74529;BME280;63009;52.584;5.932;2023-07-16T09:11:24;101047.66;;;20.39;63.41
74529;BME280;63009;52.584;5.932;2023-07-16T09:13:50;101038.47;;;20.51;62.64
74529;BME280;63009;52.584;5.932;2023-07-16T09:16:18;101041.56;;;20.56;63.53
74529;BME280;63009;52.584;5.932;2023-07-16T09:18:44;101044.47;;;20.63;62.39
74529;BME280;63009;52.584;5.932;2023-07-16T09:21:10;101041.41;;;20.58;62.68
74529;BME280;63009;52.584;5.932;2023-07-16T09:23:35;101048.81;;;20.46;61.83
74529;BME280;63009;52.584;5.932;2023-07-16T09:26:02;101043.16;;;20.39;62.93
74529;BME280;63009;52.584;5.932;2023-07-16T09:28:30;101044.06;;;20.30;63.08
74529;BME280;63009;52.584;5.932;2023-07-16T09:30:55;101054.63;;;20.32;63.50
74529;BME280;63009;52.584;5.932;2023-07-16T09:33:22;101061.72;;;20.23;64.13
74529;BME280;63009;52.584;5.932;2023-07-16T09:35:51;101064.47;;;20.04;63.72
74529;BME280;63009;52.584;5.932;2023-07-16T09:38:17;101089.06;;;19.99;64.46
74529;BME280;63009;52.584;5.932;2023-07-16T09:40:43;101075.81;;;19.88;65.34
74529;BME280;63009;52.584;5.932;2023-07-16T09:43:09;101082.75;;;19.71;65.58
74529;BME280;63009;52.584;5.932;2023-07-16T09:45:35;101086.84;;;19.66;66.26
74529;BME280;63009;52.584;5.932;2023-07-16T09:48:02;101089.22;;;19.78;66.00
74529;BME280;63009;52.584;5.932;2023-07-16T09:50:29;101099.06;;;20.07;66.18
74529;BME280;63009;52.584;5.932;2023-07-16T09:52:56;101088.63;;;20.51;64.51
74529;BME280;63009;52.584;5.932;2023-07-16T09:55:22;101092.44;;;20.58;66.44
74529;BME280;63009;52.584;5.932;2023-07-16T09:57:49;101104.44;;;20.54;65.72
74529;BME280;63009;52.584;5.932;2023-07-16T10:00:16;101111.03;;;20.41;64.13
74529;BME280;63009;52.584;5.932;2023-07-16T10:02:44;101110.00;;;20.33;64.46
74529;BME280;63009;52.584;5.932;2023-07-16T10:07:38;101122.91;;;20.66;62.86
74529;BME280;63009;52.584;5.932;2023-07-16T10:10:07;101121.13;;;20.57;63.61
74529;BME280;63009;52.584;5.932;2023-07-16T10:12:34;101120.34;;;20.28;64.20
74529;BME280;63009;52.584;5.932;2023-07-16T10:14:59;101118.75;;;20.35;65.92
74529;BME280;63009;52.584;5.932;2023-07-16T10:17:30;101129.81;;;20.41;65.50
74529;BME280;63009;52.584;5.932;2023-07-16T10:19:58;101133.72;;;20.37;63.17
74529;BME280;63009;52.584;5.932;2023-07-16T10:22:40;101137.88;;;20.22;65.08
74529;BME280;63009;52.584;5.932;2023-07-16T10:25:10;101132.94;;;20.27;65.45
74529;BME280;63009;52.584;5.932;2023-07-16T10:27:36;101138.41;;;20.45;64.78
74529;BME280;63009;52.584;5.932;2023-07-16T10:30:02;101145.88;;;20.51;65.22
74529;BME280;63009;52.584;5.932;2023-07-16T10:32:30;101137.88;;;20.41;63.24
74529;BME280;63009;52.584;5.932;2023-07-16T10:34:56;101137.03;;;20.68;63.97
74529;BME280;63009;52.584;5.932;2023-07-16T10:37:22;101145.94;;;20.69;63.84
74529;BME280;63009;52.584;5.932;2023-07-16T10:39:48;101138.94;;;20.58;63.69
74529;BME280;63009;52.584;5.932;2023-07-16T10:42:15;101150.31;;;20.42;64.51
74529;BME280;63009;52.584;5.932;2023-07-16T10:44:41;101163.13;;;20.39;65.48
74529;BME280;63009;52.584;5.932;2023-07-16T10:47:07;101154.09;;;20.30;65.21
74529;BME280;63009;52.584;5.932;2023-07-16T10:49:32;101151.72;;;20.27;64.51
74529;BME280;63009;52.584;5.932;2023-07-16T10:52:01;101161.19;;;20.12;65.35
74529;BME280;63009;52.584;5.932;2023-07-16T10:54:30;101164.72;;;20.12;65.07
74529;BME280;63009;52.584;5.932;2023-07-16T10:56:55;101153.88;;;20.04;65.21
74529;BME280;63009;52.584;5.932;2023-07-16T10:59:21;101152.75;;;19.88;65.11
74529;BME280;63009;52.584;5.932;2023-07-16T11:01:47;101161.34;;;19.91;65.93
74529;BME280;63009;52.584;5.932;2023-07-16T11:04:12;101165.03;;;19.90;65.68
74529;BME280;63009;52.584;5.932;2023-07-16T11:06:37;101172.66;;;19.75;66.36
74529;BME280;63009;52.584;5.932;2023-07-16T11:09:09;101175.19;;;19.77;66.78
74529;BME280;63009;52.584;5.932;2023-07-16T11:11:34;101179.00;;;19.74;67.04
74529;BME280;63009;52.584;5.932;2023-07-16T11:13:59;101165.31;;;19.77;66.73
74529;BME280;63009;52.584;5.932;2023-07-16T11:16:25;101171.53;;;19.88;66.67
74529;BME280;63009;52.584;5.932;2023-07-16T11:18:51;101172.91;;;20.11;67.69
74529;BME280;63009;52.584;5.932;2023-07-16T11:21:18;101176.00;;;20.26;65.27
74529;BME280;63009;52.584;5.932;2023-07-16T11:23:45;101160.47;;;20.29;65.74
74529;BME280;63009;52.584;5.932;2023-07-16T11:26:10;101161.47;;;20.28;65.75
74529;BME280;63009;52.584;5.932;2023-07-16T11:28:39;101172.91;;;20.30;66.69
74529;BME280;63009;52.584;5.932;2023-07-16T11:31:16;101166.53;;;20.31;67.90
74529;BME280;63009;52.584;5.932;2023-07-16T11:33:45;101173.84;;;20.39;64.89
74529;BME280;63009;52.584;5.932;2023-07-16T11:36:11;101161.84;;;20.53;65.01
74529;BME280;63009;52.584;5.932;2023-07-16T11:38:37;101181.31;;;20.64;65.89
74529;BME280;63009;52.584;5.932;2023-07-16T11:41:03;101174.63;;;20.78;65.54
74529;BME280;63009;52.584;5.932;2023-07-16T11:43:36;101179.91;;;20.70;64.13
74529;BME280;63009;52.584;5.932;2023-07-16T11:46:03;101189.97;;;20.58;63.77
74529;BME280;63009;52.584;5.932;2023-07-16T11:48:28;101191.66;;;20.40;65.14
74529;BME280;63009;52.584;5.932;2023-07-16T11:50:53;101194.94;;;20.24;65.86
74529;BME280;63009;52.584;5.932;2023-07-16T11:53:19;101187.47;;;20.28;64.95
74529;BME280;63009;52.584;5.932;2023-07-16T11:55:44;101181.75;;;20.40;65.23
74529;BME280;63009;52.584;5.932;2023-07-16T11:58:09;101188.00;;;20.41;64.41
74529;BME280;63009;52.584;5.932;2023-07-16T12:00:34;101191.56;;;20.41;65.19
74529;BME280;63009;52.584;5.932;2023-07-16T12:03:00;101186.31;;;20.50;64.81
74529;BME280;63009;52.584;5.932;2023-07-16T12:05:25;101188.97;;;20.59;66.27
74529;BME280;63009;52.584;5.932;2023-07-16T12:07:53;101182.47;;;20.62;65.14
74529;BME280;63009;52.584;5.932;2023-07-16T12:10:20;101189.53;;;20.63;64.67
74529;BME280;63009;52.584;5.932;2023-07-16T12:12:45;101196.56;;;20.73;64.86
74529;BME280;63009;52.584;5.932;2023-07-16T12:15:11;101190.59;;;20.80;62.74
74529;BME280;63009;52.584;5.932;2023-07-16T12:17:37;101196.53;;;20.83;62.10
74529;BME280;63009;52.584;5.932;2023-07-16T12:20:03;101195.56;;;20.74;59.41
74529;BME280;63009;52.584;5.932;2023-07-16T12:22:29;101210.72;;;20.66;60.78
74529;BME280;63009;52.584;5.932;2023-07-16T12:24:55;101207.63;;;20.61;61.55
74529;BME280;63009;52.584;5.932;2023-07-16T12:27:22;101215.94;;;20.67;60.65
74529;BME280;63009;52.584;5.932;2023-07-16T12:29:48;101213.53;;;20.74;60.59
74529;BME280;63009;52.584;5.932;2023-07-16T12:32:13;101209.88;;;20.65;61.15
74529;BME280;63009;52.584;5.932;2023-07-16T12:34:39;101222.59;;;20.63;61.75
74529;BME280;63009;52.584;5.932;2023-07-16T12:37:05;101219.50;;;20.58;62.15
74529;BME280;63009;52.584;5.932;2023-07-16T12:39:30;101226.72;;;20.58;63.59
74529;BME280;63009;52.584;5.932;2023-07-16T12:41:55;101230.81;;;20.62;63.24
74529;BME280;63009;52.584;5.932;2023-07-16T12:44:20;101228.78;;;20.73;63.27
74529;BME280;63009;52.584;5.932;2023-07-16T12:46:46;101231.88;;;20.79;61.89
74529;BME280;63009;52.584;5.932;2023-07-16T12:49:11;101235.53;;;20.87;59.90